Time;durP1;ratioP1;P1;durP2;ratioP2;P2;SDS_P1;SDS_P2;PMS_P1;PMS_P2;Temp;Humidity;BMP_temperature;BMP_pressure;BME280_temperature;BME280_humidity;BME280_pressure;Samples;Min_cycle;Max_cycle;Signal;HPM_P1;HPM_P2
2022/07/13 00:01:19;;;;;;;8.63;7.82;;;;;;;20.98;nan;101924.53;5032004;28;20117;-60
2022/07/13 00:03:45;;;;;;;7.10;6.50;;;;;;;20.99;nan;101931.59;5030813;28;20033;-60
2022/07/13 00:06:10;;;;;;;7.65;6.85;;;;;;;20.94;nan;101926.50;5031706;28;20061;-62
2022/07/13 00:08:35;;;;;;;7.07;6.43;;;;;;;20.88;nan;101918.84;5030708;28;20041;-60
2022/07/13 00:11:01;;;;;;;7.82;6.85;;;;;;;20.69;nan;101880.75;5030874;28;20045;-60
2022/07/13 00:13:26;;;;;;;7.28;6.68;;;;;;;20.57;nan;101868.94;5031951;28;20045;-58
2022/07/13 00:15:51;;;;;;;8.10;6.85;;;;;;;20.89;nan;101928.59;5013736;28;20061;-59
2022/07/13 00:18:17;;;;;;;7.10;6.50;;;;;;;20.58;nan;101878.66;5031875;28;20076;-62
2022/07/13 00:20:43;;;;;;;8.60;6.40;;;;;;;20.79;nan;101924.72;5030362;28;20039;-59
2022/07/13 00:23:09;;;;;;;7.00;6.40;;;;;;;20.81;nan;101935.34;5031843;28;20034;-59
2022/07/13 00:25:34;;;;;;;7.82;6.88;;;;;;;20.74;nan;101919.66;5030926;28;20109;-61
2022/07/13 00:27:59;;;;;;;7.47;6.85;;;;;;;20.67;nan;101931.66;5031990;28;20125;-60
2022/07/13 00:30:25;;;;;;;7.22;6.63;;;;;;;20.26;nan;101863.59;5030519;28;20034;-62
2022/07/13 00:32:50;;;;;;;8.38;7.53;;;;;;;20.54;nan;101925.28;5031733;28;20080;-60
2022/07/13 00:35:15;;;;;;;7.55;6.85;;;;;;;20.50;nan;101918.38;5031326;28;20044;-59
2022/07/13 00:37:41;;;;;;;7.95;7.35;;;;;;;20.12;nan;101855.44;5033185;28;20116;-60
2022/07/13 00:40:07;;;;;;;8.15;7.28;;;;;;;20.08;nan;101853.91;5035481;28;20086;-60
2022/07/13 00:42:32;;;;;;;7.53;6.93;;;;;;;20.37;nan;101912.00;5035276;28;20485;-58
2022/07/13 00:44:57;;;;;;;8.10;7.30;;;;;;;20.00;nan;101851.66;5035513;28;20036;-60
2022/07/13 00:47:23;;;;;;;8.63;7.82;;;;;;;20.35;nan;101900.50;5035439;28;20038;-62
2022/07/13 00:49:48;;;;;;;8.30;7.50;;;;;;;20.27;nan;101892.06;5034106;28;20041;-60
2022/07/13 00:52:14;;;;;;;9.18;8.25;;;;;;;20.16;nan;101873.94;5034993;28;20216;-59
2022/07/13 00:54:42;;;;;;;8.07;7.32;;;;;;;20.26;nan;101890.31;5033851;28;20025;-60
2022/07/13 00:57:08;;;;;;;9.00;7.68;;;;;;;20.26;nan;101884.97;5033904;28;20116;-63
2022/07/13 00:59:35;;;;;;;7.93;7.13;;;;;;;20.28;nan;101883.09;5033954;28;20044;-59
2022/07/13 01:02:00;;;;;;;8.48;7.50;;;;;;;20.29;nan;101875.91;5033661;28;20079;-59
2022/07/13 01:04:26;;;;;;;9.20;8.10;;;;;;;19.73;nan;101762.34;5034709;28;20041;-60
2022/07/13 01:06:54;;;;;;;12.48;8.25;;;;;;;20.04;nan;101801.56;5033548;28;20125;-62
2022/07/13 01:09:23;;;;;;;8.77;7.68;;;;;;;20.09;nan;101813.72;5035209;28;20043;-59
2022/07/13 01:11:50;;;;;;;7.72;7.03;;;;;;;20.43;nan;101859.97;5034889;28;20040;-60
2022/07/13 01:14:15;;;;;;;8.15;7.05;;;;;;;20.44;nan;101867.03;5034668;28;20419;-62
2022/07/13 01:16:41;;;;;;;8.98;8.07;;;;;;;20.42;nan;101850.22;5034342;28;20034;-59
2022/07/13 01:19:10;;;;;;;10.30;8.10;;;;;;;20.15;nan;101805.34;5033342;28;20029;-59
2022/07/13 01:21:36;;;;;;;8.05;7.35;;;;;;;20.53;nan;101864.69;5033617;28;20029;-58
2022/07/13 01:24:02;;;;;;;8.70;7.72;;;;;;;20.53;nan;101866.50;5033275;28;20500;-60
2022/07/13 01:26:27;;;;;;;8.68;7.50;;;;;;;20.47;nan;101851.69;5033372;28;20063;-60
2022/07/13 01:28:52;;;;;;;7.40;6.70;;;;;;;20.23;nan;101806.75;5016936;28;20128;-60
2022/07/13 01:31:47;;;;;;;9.77;7.15;;;;;;;20.57;nan;101874.28;5034314;28;20044;-60
2022/07/13 01:34:12;;;;;;;7.97;6.30;;;;;;;20.59;nan;101877.72;5029379;28;20102;-60
2022/07/13 01:36:38;;;;;;;7.70;6.97;;;;;;;20.64;nan;101888.16;5034162;28;20133;-61
2022/07/13 01:39:05;;;;;;;7.05;6.45;;;;;;;20.74;nan;101889.34;5032390;28;20147;-60
2022/07/13 01:41:30;;;;;;;6.95;6.35;;;;;;;20.82;nan;101894.25;5032527;28;20160;-59
2022/07/13 01:43:57;;;;;;;7.00;6.40;;;;;;;20.51;nan;101820.28;5034137;28;20120;-62
2022/07/13 01:46:23;;;;;;;7.53;6.72;;;;;;;20.55;nan;101830.69;5034029;28;20029;-64
2022/07/13 01:48:49;;;;;;;7.72;7.13;;;;;;;20.74;nan;101855.44;5033867;28;20046;-61
2022/07/13 01:51:14;;;;;;;7.00;6.05;;;;;;;20.85;nan;101875.34;5032880;28;20160;-60
2022/07/13 01:53:39;;;;;;;7.30;6.63;;;;;;;20.55;nan;101824.47;5034012;28;20041;-59
2022/07/13 01:56:05;;;;;;;7.70;5.72;;;;;;;20.92;nan;101879.38;5034040;28;20037;-61
2022/07/13 01:58:30;;;;;;;6.57;5.97;;;;;;;20.98;nan;101871.00;5033772;28;20437;-61
2022/07/13 02:00:56;;;;;;;7.70;6.47;;;;;;;20.91;nan;101853.56;5033765;28;20117;-63
2022/07/13 02:03:21;;;;;;;7.65;5.97;;;;;;;20.68;nan;101810.31;5033881;28;20034;-58
2022/07/13 02:05:47;;;;;;;7.43;6.53;;;;;;;21.02;nan;101870.72;5033707;28;20057;-63
2022/07/13 02:08:13;;;;;;;7.43;6.53;;;;;;;21.03;nan;101856.38;5033720;28;20030;-62
2022/07/13 02:10:38;;;;;;;6.68;6.07;;;;;;;20.79;nan;101815.00;5032383;28;20091;-63
2022/07/13 02:13:05;;;;;;;6.72;5.88;;;;;;;21.03;nan;101856.38;5033410;28;20030;-61
2022/07/13 02:15:30;;;;;;;9.38;6.45;;;;;;;21.06;nan;101861.56;5032269;28;20029;-61
2022/07/13 02:17:55;;;;;;;7.80;6.03;;;;;;;21.08;nan;101861.47;5033808;28;20528;-61
2022/07/13 02:20:21;;;;;;;7.90;5.85;;;;;;;20.77;nan;101817.78;5033491;28;20065;-62
2022/07/13 02:22:46;;;;;;;6.45;5.90;;;;;;;21.04;nan;101857.25;5033530;28;20033;-59
2022/07/13 02:25:12;;;;;;;8.20;6.43;;;;;;;20.89;nan;101834.06;5033280;28;20033;-62
2022/07/13 02:27:38;;;;;;;6.60;6.00;;;;;;;20.98;nan;101855.81;5033849;28;20460;-61
2022/07/13 02:30:04;;;;;;;6.28;5.78;;;;;;;20.92;nan;101856.16;5031976;28;20036;-60
2022/07/13 02:32:29;;;;;;;7.15;5.78;;;;;;;20.85;nan;101843.22;5033384;28;20489;-60
2022/07/13 02:34:54;;;;;;;7.32;6.50;;;;;;;20.80;nan;101840.81;5033265;28;20623;-62
2022/07/13 02:37:20;;;;;;;7.60;6.60;;;;;;;20.40;nan;101790.63;5032776;28;20053;-61
2022/07/13 02:39:45;;;;;;;7.55;6.72;;;;;;;20.74;nan;101851.88;5033029;28;20550;-61
2022/07/13 02:42:10;;;;;;;7.22;6.13;;;;;;;20.74;nan;101836.72;5031955;28;20063;-59
2022/07/13 02:44:36;;;;;;;6.85;6.25;;;;;;;20.41;nan;101787.84;5031744;28;20076;-60
2022/07/13 02:47:01;;;;;;;7.25;6.55;;;;;;;20.80;nan;101845.31;5033145;28;20128;-60
2022/07/13 02:49:26;;;;;;;7.40;6.15;;;;;;;20.85;nan;101851.25;5031700;28;20512;-61
2022/07/13 02:51:51;;;;;;;6.88;6.15;;;;;;;20.84;nan;101846.88;5032982;28;20080;-60
2022/07/13 02:54:17;;;;;;;6.90;6.03;;;;;;;20.84;nan;101847.69;5032943;28;20052;-61
2022/07/13 02:56:42;;;;;;;6.30;5.78;;;;;;;20.51;nan;101791.72;5032911;28;20526;-61
2022/07/13 02:59:07;;;;;;;6.13;5.53;;;;;;;20.77;nan;101827.63;5032073;28;20042;-61
2022/07/13 03:01:33;;;;;;;8.00;5.70;;;;;;;20.48;nan;101780.34;5032688;28;20041;-60
2022/07/13 03:03:58;;;;;;;6.88;5.53;;;;;;;20.88;nan;101843.03;5032977;28;20389;-63
2022/07/13 03:06:23;;;;;;;7.35;5.90;;;;;;;20.87;nan;101836.81;5032805;28;20123;-60
2022/07/13 03:08:48;;;;;;;5.80;5.30;;;;;;;20.87;nan;101831.47;5032488;28;20424;-61
2022/07/13 03:11:14;;;;;;;6.15;5.60;;;;;;;20.48;nan;101767.81;5032744;28;20080;-65
2022/07/13 03:13:39;;;;;;;6.47;5.90;;;;;;;20.77;nan;101823.16;5032470;28;20423;-60
2022/07/13 03:16:05;;;;;;;7.05;6.07;;;;;;;20.74;nan;101820.66;5032282;28;20049;-63
2022/07/13 03:18:30;;;;;;;6.70;6.07;;;;;;;20.37;nan;101761.38;5032528;28;20377;-59
2022/07/13 03:20:55;;;;;;;7.18;6.47;;;;;;;20.32;nan;101758.97;5032681;28;20048;-59
2022/07/13 03:23:20;;;;;;;6.45;5.88;;;;;;;20.59;nan;101818.88;5032494;28;20065;-60
2022/07/13 03:25:46;;;;;;;6.47;5.97;;;;;;;20.58;nan;101813.59;5032511;28;20120;-61
2022/07/13 03:28:11;;;;;;;6.63;6.03;;;;;;;20.28;nan;101770.81;5032292;28;20419;-61
2022/07/13 03:30:37;;;;;;;7.55;6.85;;;;;;;20.51;nan;101810.44;5031024;28;20071;-61
2022/07/13 03:33:02;;;;;;;6.55;5.95;;;;;;;20.47;nan;101802.66;5032489;28;20033;-60
2022/07/13 03:35:27;;;;;;;7.50;6.35;;;;;;;20.46;nan;101817.84;5032109;28;20464;-59
2022/07/13 03:37:53;;;;;;;6.50;5.90;;;;;;;20.45;nan;101813.47;5032322;28;20064;-62
2022/07/13 03:40:18;;;;;;;7.03;6.32;;;;;;;20.43;nan;101803.81;5031920;28;20038;-60
2022/07/13 03:42:43;;;;;;;7.32;6.63;;;;;;;20.12;nan;101754.75;5032256;28;20030;-60
2022/07/13 03:45:09;;;;;;;6.68;6.07;;;;;;;20.39;nan;101799.59;5032209;28;20033;-59
2022/07/13 03:47:34;;;;;;;7.30;6.60;;;;;;;20.34;nan;101807.03;5032448;28;20045;-60
2022/07/13 03:50:00;;;;;;;8.25;5.90;;;;;;;20.13;nan;101756.47;5032088;28;20040;-62
2022/07/13 03:52:25;;;;;;;6.75;6.15;;;;;;;20.01;nan;101727.78;5030906;28;20065;-60
2022/07/13 03:54:50;;;;;;;6.65;5.90;;;;;;;20.53;nan;101813.88;5031911;28;20048;-60
2022/07/13 03:57:16;;;;;;;7.15;6.43;;;;;;;20.55;nan;101803.94;5030905;28;20171;-60
2022/07/13 03:59:41;;;;;;;7.10;6.47;;;;;;;20.50;nan;101791.78;5030717;28;20094;-62
2022/07/13 04:02:06;;;;;;;7.22;6.53;;;;;;;20.29;nan;101752.91;5032332;28;20025;-62
2022/07/13 04:04:32;;;;;;;7.18;6.47;;;;;;;20.26;nan;101753.13;5032221;28;20041;-61
2022/07/13 04:06:57;;;;;;;5.88;4.88;;;;;;;20.61;nan;101808.94;5031901;28;20034;-60
2022/07/13 04:09:22;;;;;;;6.63;5.93;;;;;;;20.59;nan;101792.13;5030770;28;20053;-59
2022/07/13 04:11:48;;;;;;;7.20;6.60;;;;;;;20.49;nan;101769.53;5035309;28;20064;-60
2022/07/13 04:14:13;;;;;;;6.95;5.68;;;;;;;20.74;nan;101809.94;5035751;28;20443;-61
2022/07/13 04:16:39;;;;;;;8.13;6.28;;;;;;;20.74;nan;101812.63;5034279;28;20038;-62
2022/07/13 04:19:04;;;;;;;6.13;5.28;;;;;;;20.75;nan;101817.00;5035857;28;20037;-59
2022/07/13 04:21:29;;;;;;;6.82;6.10;;;;;;;20.77;nan;101819.59;5034598;28;20403;-64
2022/07/13 04:23:55;;;;;;;5.80;5.13;;;;;;;20.78;nan;101824.00;5034426;28;20037;-60
2022/07/13 04:26:20;;;;;;;6.30;5.05;;;;;;;20.65;nan;101797.13;5034391;28;20484;-60
2022/07/13 04:28:45;;;;;;;7.70;5.68;;;;;;;20.87;nan;101822.59;5035592;28;20037;-62
2022/07/13 04:31:11;;;;;;;6.05;5.10;;;;;;;20.82;nan;101797.91;5036143;28;20056;-59
2022/07/13 04:33:36;;;;;;;4.97;4.57;;;;;;;20.94;nan;101811.41;5034559;28;20045;-61
2022/07/13 04:36:02;;;;;;;5.72;4.45;;;;;;;20.96;nan;101814.84;5034006;28;20397;-61
2022/07/13 04:38:27;;;;;;;4.47;4.05;;;;;;;21.01;nan;101812.78;5035150;28;20468;-60
2022/07/13 04:40:52;;;;;;;5.95;4.53;;;;;;;20.67;nan;101763.09;5035335;28;20077;-63
2022/07/13 04:43:17;;;;;;;7.72;4.30;;;;;;;21.08;nan;101826.69;5035259;28;20025;-59
2022/07/13 04:45:43;;;;;;;7.93;4.25;;;;;;;20.88;nan;101790.38;5035469;28;20378;-61
2022/07/13 04:48:08;;;;;;;4.93;4.15;;;;;;;21.17;nan;101832.34;5033923;28;20103;-60
2022/07/13 04:50:33;;;;;;;4.38;3.97;;;;;;;20.85;nan;101776.31;5033772;28;20040;-60
2022/07/13 04:52:59;;;;;;;4.47;3.60;;;;;;;21.06;nan;101804.47;5035127;28;20034;-60
2022/07/13 04:55:24;;;;;;;7.25;3.85;;;;;;;21.26;nan;101838.94;5033796;28;20034;-61
2022/07/13 04:57:50;;;;;;;4.97;4.25;;;;;;;21.19;nan;101825.06;5034970;28;20038;-59
2022/07/13 05:00:16;;;;;;;8.00;3.30;;;;;;;21.29;nan;101833.41;5033709;28;20037;-61
2022/07/13 05:02:41;;;;;;;4.82;3.83;;;;;;;21.35;nan;101833.03;5035208;28;20112;-61
2022/07/13 05:05:07;;;;;;;3.35;3.05;;;;;;;21.06;nan;101783.06;5034849;28;20133;-60
2022/07/13 05:07:33;;;;;;;3.30;3.00;;;;;;;21.40;nan;101838.09;5034703;28;20068;-59
2022/07/13 05:09:58;;;;;;;3.50;3.20;;;;;;;21.45;nan;101836.03;5034747;28;20091;-60
2022/07/13 05:12:23;;;;;;;4.97;3.22;;;;;;;21.47;nan;101839.44;5034622;28;20037;-60
2022/07/13 05:14:48;;;;;;;4.72;3.20;;;;;;;21.49;nan;101846.44;5034972;28;20136;-60
2022/07/13 05:17:14;;;;;;;4.25;3.03;;;;;;;21.52;nan;101838.22;5034979;28;20033;-63
2022/07/13 05:19:39;;;;;;;3.63;3.17;;;;;;;21.54;nan;101838.13;5033456;28;20443;-60
2022/07/13 05:22:05;;;;;;;4.30;2.78;;;;;;;21.59;nan;101847.59;5033932;28;20072;-59
2022/07/13 05:24:30;;;;;;;4.22;3.45;;;;;;;21.36;nan;101794.59;5034434;28;20045;-61
2022/07/13 05:26:55;;;;;;;7.57;3.00;;;;;;;21.53;nan;101797.06;5034604;28;20034;-61
2022/07/13 05:29:21;;;;;;;3.90;2.75;;;;;;;21.48;nan;101788.44;5033037;28;20099;-60
2022/07/13 05:31:46;;;;;;;3.55;3.08;;;;;;;21.74;nan;101833.25;5033363;28;20038;-61
2022/07/13 05:34:11;;;;;;;4.75;3.45;;;;;;;21.79;nan;101828.44;5034463;28;20041;-61
2022/07/13 05:36:37;;;;;;;4.55;3.38;;;;;;;21.76;nan;101828.63;5034237;28;20057;-60
2022/07/13 05:39:02;;;;;;;5.38;3.47;;;;;;;21.56;nan;101777.25;5032703;28;20119;-61
2022/07/13 05:41:28;;;;;;;5.07;3.75;;;;;;;21.63;nan;101789.28;5032955;28;20040;-62
2022/07/13 05:43:53;;;;;;;3.90;3.35;;;;;;;21.56;nan;101764.75;5034297;28;20508;-61
2022/07/13 05:46:18;;;;;;;4.45;3.20;;;;;;;21.92;nan;101828.53;5034117;28;20045;-60
2022/07/13 05:48:44;;;;;;;5.20;3.38;;;;;;;21.97;nan;101838.97;5034274;28;20034;-60
2022/07/13 05:51:09;;;;;;;4.78;3.50;;;;;;;21.90;nan;101834.97;5034113;28;20034;-62
2022/07/13 05:53:34;;;;;;;5.50;3.83;;;;;;;21.98;nan;101844.22;5033814;28;20037;-59
2022/07/13 05:56:00;;;;;;;7.07;3.88;;;;;;;21.73;nan;101793.13;5033958;28;20084;-60
2022/07/13 05:58:25;;;;;;;4.60;4.03;;;;;;;22.08;nan;101847.19;5032534;28;20048;-60
2022/07/13 06:00:50;;;;;;;4.97;4.03;;;;;;;21.80;nan;101791.78;5033898;28;20033;-62
2022/07/13 06:03:16;;;;;;;6.50;4.80;;;;;;;22.09;nan;101846.25;5032694;28;20374;-63
2022/07/13 06:05:41;;;;;;;6.00;4.60;;;;;;;22.20;nan;101846.41;5033708;28;20568;-60
2022/07/13 06:08:06;;;;;;;4.93;4.45;;;;;;;22.19;nan;101847.34;5034154;28;20505;-60
2022/07/13 06:10:32;;;;;;;8.05;4.45;;;;;;;22.09;nan;101825.66;5033688;28;20401;-59
2022/07/13 06:12:57;;;;;;;5.22;4.72;;;;;;;21.67;nan;101756.88;5033574;28;20029;-60
2022/07/13 06:15:22;;;;;;;5.60;4.43;;;;;;;22.17;nan;101831.38;5033769;28;20499;-64
2022/07/13 06:17:47;;;;;;;6.05;4.35;;;;;;;22.23;nan;101844.38;5033743;28;20036;-60
2022/07/13 06:20:13;;;;;;;5.28;4.35;;;;;;;22.28;nan;101838.72;5033509;28;20091;-62
2022/07/13 06:22:38;;;;;;;5.90;4.68;;;;;;;22.42;nan;101844.91;5032281;28;20461;-62
2022/07/13 06:25:04;;;;;;;5.50;4.45;;;;;;;22.34;nan;101807.00;5033339;28;20099;-64
2022/07/13 06:27:30;;;;;;;4.93;4.45;;;;;;;22.60;nan;101840.13;5033304;28;20030;-62
2022/07/13 06:29:55;;;;;;;6.63;4.32;;;;;;;22.80;nan;101858.47;5033240;28;20060;-61
2022/07/13 06:32:20;;;;;;;5.57;4.03;;;;;;;22.77;nan;101861.38;5033246;28;20476;-61
2022/07/13 06:34:46;;;;;;;5.60;4.18;;;;;;;22.43;nan;101792.97;5032935;28;20038;-59
2022/07/13 06:37:11;;;;;;;4.68;4.25;;;;;;;22.90;nan;101859.59;5032807;28;20054;-61
2022/07/13 06:39:36;;;;;;;4.68;3.78;;;;;;;22.93;nan;101858.50;5033073;28;20044;-63
2022/07/13 06:42:02;;;;;;;6.18;3.85;;;;;;;23.05;nan;101862.19;5031842;28;20034;-63
2022/07/13 06:44:27;;;;;;;5.45;4.13;;;;;;;23.16;nan;101852.44;5033364;28;20049;-62
2022/07/13 06:46:53;;;;;;;5.63;3.70;;;;;;;23.31;nan;101863.94;5033132;28;20049;-61
2022/07/13 06:49:18;;;;;;;3.97;3.55;;;;;;;23.39;nan;101861.59;5031805;28;20465;-62
2022/07/13 06:51:43;;;;;;;5.50;3.53;;;;;;;23.49;nan;101862.69;5031577;28;20038;-61
2022/07/13 06:54:09;;;;;;;6.55;3.83;;;;;;;23.57;nan;101863.00;5032666;28;20087;-61
2022/07/13 06:56:34;;;;;;;5.07;3.95;;;;;;;23.35;nan;101825.16;5032778;28;20083;-63
2022/07/13 06:58:59;;;;;;;4.35;3.30;;;;;;;23.62;nan;101865.34;5032683;28;20168;-61
2022/07/13 07:01:25;;;;;;;3.90;3.10;;;;;;;23.75;nan;101880.53;5040544;28;20033;-61
2022/07/13 07:03:50;;;;;;;5.75;3.33;;;;;;;23.38;nan;101820.44;5049828;28;20049;-61
2022/07/13 07:06:15;;;;;;;3.38;3.17;;;;;;;23.54;nan;101892.78;5051225;28;20048;-63
2022/07/13 07:08:40;;;;;;;3.53;3.22;;;;;;;23.30;nan;101878.34;5049377;28;20402;-63
2022/07/13 07:11:06;;;;;;;6.15;3.92;;;;;;;23.15;nan;101877.56;5051057;28;20045;-63
2022/07/13 07:13:31;;;;;;;4.78;4.10;;;;;;;23.15;nan;101863.25;5050719;28;20403;-63
2022/07/13 07:15:59;;;;;;;8.10;3.80;;;;;;;23.32;nan;101879.09;5049736;28;20036;-61
2022/07/13 07:18:24;;;;;;;4.95;3.80;;;;;;;23.52;nan;101879.44;5050954;28;20116;-61
2022/07/13 07:20:50;;;;;;;6.40;4.30;;;;;;;23.68;nan;101875.69;5050996;28;20544;-63
2022/07/13 07:23:15;;;;;;;4.28;3.65;;;;;;;23.77;nan;101881.28;5050785;28;20037;-63
2022/07/13 07:25:40;;;;;;;5.38;3.88;;;;;;;23.68;nan;101821.91;5049554;28;20087;-66
2022/07/13 07:28:07;;;;;;;7.28;3.65;;;;;;;23.99;nan;101892.19;5050668;28;20025;-61
2022/07/13 07:30:33;;;;;;;3.53;3.22;;;;;;;23.78;nan;101826.53;5051091;28;20037;-61
2022/07/13 07:32:58;;;;;;;3.58;3.03;;;;;;;24.40;nan;101891.09;5051209;28;20090;-59
2022/07/13 07:35:23;;;;;;;6.60;3.53;;;;;;;24.60;nan;101883.25;5050711;28;20051;-61
2022/07/13 07:37:49;;;;;;;5.38;3.50;;;;;;;24.55;nan;101884.53;5050664;28;20488;-62
2022/07/13 07:40:14;;;;;;;6.45;3.70;;;;;;;24.70;nan;101893.31;5049333;28;20086;-66
2022/07/13 07:42:39;;;;;;;4.00;2.75;;;;;;;24.69;nan;101846.69;5047974;28;20117;-61
2022/07/13 07:45:06;;;;;;;8.20;3.67;;;;;;;24.72;nan;101822.25;5052758;28;20044;-65
2022/07/13 07:47:32;;;;;;;5.25;3.50;;;;;;;25.10;nan;101884.81;5057385;28;20048;-61
2022/07/13 07:49:57;;;;;;;4.72;3.70;;;;;;;24.84;nan;101837.47;5057955;28;20064;-66
2022/07/13 07:52:22;;;;;;;4.57;3.70;;;;;;;24.94;nan;101892.38;5057391;28;20041;-67
2022/07/13 07:54:48;;;;;;;3.75;3.42;;;;;;;24.84;nan;101842.84;5055783;28;20037;-64
2022/07/13 07:57:14;;;;;;;5.80;3.38;;;;;;;25.28;nan;101900.56;5057103;28;20049;-68
2022/07/13 07:59:39;;;;;;;5.05;3.58;;;;;;;25.38;nan;101898.88;5055870;28;20476;-64
2022/07/13 08:02:05;;;;;;;3.72;3.30;;;;;;;25.37;nan;101840.53;5056197;28;20065;-64
2022/07/13 08:04:31;;;;;;;10.70;3.92;;;;;;;25.63;nan;101861.78;5056780;28;20037;-62
2022/07/13 08:06:56;;;;;;;5.88;3.58;;;;;;;25.80;nan;101914.41;5057143;28;20041;-63
2022/07/13 08:09:21;;;;;;;5.15;3.78;;;;;;;25.95;nan;101905.06;5057109;28;20032;-63
2022/07/13 08:11:47;;;;;;;5.78;3.58;;;;;;;26.01;nan;101896.50;5057198;28;20041;-62
2022/07/13 08:14:12;;;;;;;5.72;3.85;;;;;;;25.98;nan;101885.09;5057750;28;20037;-62
2022/07/13 08:16:38;;;;;;;4.70;3.67;;;;;;;26.33;nan;101918.19;5057325;28;20511;-60
2022/07/13 08:19:03;;;;;;;4.85;3.85;;;;;;;26.34;nan;101922.63;5056081;28;20036;-61
2022/07/13 08:21:29;;;;;;;5.88;3.72;;;;;;;25.95;nan;101872.69;5055539;28;20434;-63
2022/07/13 08:23:54;;;;;;;5.25;4.00;;;;;;;25.88;nan;101860.72;5055739;28;20536;-66
2022/07/13 08:26:25;;;;;;;5.80;3.85;;;;;;;25.94;nan;101889.03;5055481;28;20040;-61
2022/07/13 08:28:51;;;;;;;3.78;3.47;;;;;;;26.42;nan;101922.84;5055155;28;20155;-62
2022/07/13 08:31:17;;;;;;;7.63;3.65;;;;;;;26.68;nan;101899.09;5055875;28;20047;-64
2022/07/13 08:39:17;;;;;;;4.20;3.55;;;;;;;28.62;nan;101923.50;5057911;28;20063;-62
2022/07/13 08:41:44;;;;;;;5.35;3.67;;;;;;;28.43;nan;101920.75;5058394;28;20045;-66
2022/07/13 08:44:09;;;;;;;4.75;4.03;;;;;;;29.12;nan;101948.69;5058067;28;20033;-64
2022/07/13 08:46:36;;;;;;;7.20;3.97;;;;;;;29.28;nan;101951.72;5056077;28;20060;-64
2022/07/13 08:49:02;;;;;;;6.63;3.60;;;;;;;29.52;nan;101957.53;5055655;28;20040;-60
2022/07/13 08:51:32;;;;;;;4.57;3.17;;;;;;;29.55;nan;101913.84;5056979;28;20064;-61
2022/07/13 08:53:58;;;;;;;8.85;3.28;;;;;;;29.57;nan;101919.09;5043640;28;20071;-63
2022/07/13 08:56:23;;;;;;;5.68;3.10;;;;;;;29.73;nan;101923.94;5054939;28;20029;-60
2022/07/13 08:58:49;;;;;;;5.63;2.90;;;;;;;30.18;nan;101959.38;5050999;28;20032;-62
2022/07/13 09:01:15;;;;;;;5.95;3.63;;;;;;;30.34;nan;101968.59;5052308;28;20040;-64
2022/07/13 09:03:41;;;;;;;6.63;3.20;;;;;;;30.36;nan;101944.84;5052766;28;20037;-62
2022/07/13 09:06:07;;;;;;;10.27;4.22;;;;;;;30.72;nan;101970.28;5052409;28;20033;-61
2022/07/13 09:08:43;;;;;;;9.02;4.70;;;;;;;30.29;nan;101938.31;5051109;28;20345;-59
2022/07/13 09:11:08;;;;;;;6.70;3.65;;;;;;;30.57;nan;101977.22;5052175;28;20112;-61
2022/07/13 09:13:44;;;;;;;6.97;3.85;;;;;;;30.44;nan;101919.69;5051593;28;20146;-65
2022/07/13 09:16:24;;;;;;;7.93;3.28;;;;;;;30.80;nan;101983.94;5050722;28;20064;-60
2022/07/13 09:18:53;;;;;;;9.32;3.75;;;;;;;30.54;nan;101959.38;5051615;28;20036;-60
2022/07/13 09:21:20;;;;;;;3.53;2.38;;;;;;;30.83;nan;101945.56;5049900;28;20064;-63
2022/07/13 09:23:48;;;;;;;4.60;2.78;;;;;;;30.93;nan;101976.31;5050407;28;20198;-63
2022/07/13 09:26:14;;;;;;;5.70;2.88;;;;;;;30.81;nan;101979.38;5052163;28;20502;-63
2022/07/13 09:28:43;;;;;;;8.05;4.15;;;;;;;30.93;nan;101984.47;5050324;28;20461;-60
2022/07/13 09:31:08;;;;;;;5.50;2.83;;;;;;;30.91;nan;101978.28;5034626;28;20028;-62
2022/07/13 09:33:35;;;;;;;4.43;2.80;;;;;;;30.68;nan;101987.88;5052569;28;20063;-61
2022/07/13 09:36:12;;;;;;;4.75;3.40;;;;;;;30.58;nan;101936.31;5050037;28;20424;-64
2022/07/13 09:38:51;;;;;;;6.03;3.60;;;;;;;30.46;nan;101974.72;5050782;28;20112;-61
2022/07/13 09:41:21;;;;;;;3.55;3.10;;;;;;;30.50;nan;101976.13;5049012;28;20047;-62
2022/07/13 09:47:00;;;;;;;5.90;3.50;;;;;;;30.22;nan;101985.22;5050594;28;20614;-61
2022/07/13 09:49:41;;;;;;;7.70;3.50;;;;;;;29.89;nan;101975.78;5050705;28;20025;-60
2022/07/13 09:52:11;;;;;;;7.00;3.80;;;;;;;29.65;nan;101984.38;5053258;28;20140;-58
2022/07/13 09:54:42;;;;;;;4.40;3.67;;;;;;;29.39;nan;101975.97;5051622;28;20041;-60
2022/07/13 09:57:14;;;;;;;8.52;4.28;;;;;;;28.54;nan;101923.38;5050562;28;20131;-62
2022/07/13 09:59:44;;;;;;;14.68;6.00;;;;;;;28.78;nan;101940.09;5050575;28;20057;-58
2022/07/13 10:02:10;;;;;;;4.10;3.43;;;;;;;28.86;nan;101926.72;5050750;28;20110;-60
2022/07/13 10:04:36;;;;;;;5.50;4.18;;;;;;;29.15;nan;101934.84;5051872;28;20294;-64
2022/07/13 10:07:02;;;;;;;6.72;4.53;;;;;;;29.12;nan;101975.81;5033664;28;20032;-61
2022/07/13 10:09:31;;;;;;;6.55;4.30;;;;;;;28.66;nan;101925.00;5050108;28;20090;-62
2022/07/13 10:12:03;;;;;;;6.65;4.15;;;;;;;28.51;nan;101936.31;5049940;28;20033;-59
2022/07/13 10:14:30;;;;;;;3.88;3.47;;;;;;;28.66;nan;101979.19;5050471;28;20124;-61
2022/07/13 10:16:59;;;;;;;4.97;4.25;;;;;;;28.32;nan;101937.09;5050934;28;20037;-62
2022/07/13 10:19:24;;;;;;;8.40;4.22;;;;;;;28.51;nan;101990.50;5049928;28;20037;-73
2022/07/13 10:22:06;;;;;;;6.40;3.75;;;;;;;27.88;nan;101893.19;5050180;28;20086;-63
2022/07/13 10:24:32;;;;;;;6.70;3.65;;;;;;;28.43;nan;101983.91;5051571;28;20445;-66
2022/07/13 10:27:26;;;;;;;5.90;3.63;;;;;;;28.40;nan;102000.41;5050224;28;20047;-65
2022/07/13 10:29:57;;;;;;;4.13;3.28;;;;;;;29.02;nan;101956.81;5050648;28;20028;-65
2022/07/13 10:32:26;;;;;;;2.97;2.75;;;;;;;29.69;nan;101977.63;5049662;28;20031;-67
2022/07/13 10:35:02;;;;;;;5.15;2.85;;;;;;;30.15;nan;102016.72;5033629;28;20047;-68
2022/07/13 10:37:27;;;;;;;6.20;3.38;;;;;;;29.55;nan;101988.94;5050179;28;20492;-64
2022/07/13 10:40:15;;;;;;;3.55;2.90;;;;;;;29.48;nan;101994.09;5050498;28;20067;-68
2022/07/13 10:42:53;;;;;;;4.22;2.17;;;;;;;29.67;nan;102036.63;5050042;28;20029;-67
2022/07/13 10:45:40;;;;;;;5.30;2.22;;;;;;;29.18;nan;102032.19;5052036;28;20067;-67
2022/07/13 10:48:06;;;;;;;5.00;3.03;;;;;;;28.87;nan;102035.97;5051943;28;20104;-67
2022/07/13 10:50:44;;;;;;;4.35;2.90;;;;;;;29.22;nan;102030.06;5049255;28;20105;-65
2022/07/13 10:53:10;;;;;;;4.45;3.35;;;;;;;29.27;nan;102000.69;5049930;28;20104;-65
2022/07/13 10:55:35;;;;;;;3.72;2.83;;;;;;;30.00;nan;102027.19;5050520;28;20222;-62
2022/07/13 10:58:30;;;;;;;3.60;3.30;;;;;;;30.04;nan;102037.59;5033160;28;20204;-64
2022/07/13 11:00:56;;;;;;;5.50;3.10;;;;;;;30.01;nan;102026.16;5045225;28;20040;-61
2022/07/13 11:03:28;;;;;;;8.52;2.92;;;;;;;30.92;nan;102038.97;5050369;28;20033;-60
2022/07/13 11:06:12;;;;;;;4.18;3.50;;;;;;;31.11;nan;102047.03;5048693;28;20041;-61
2022/07/13 11:08:37;;;;;;;7.57;3.80;;;;;;;29.88;nan;101958.63;5049884;28;20055;-60
2022/07/13 11:11:17;;;;;;;5.85;3.63;;;;;;;30.20;nan;102036.13;5050201;28;20488;-62
2022/07/13 11:13:47;;;;;;;4.75;3.15;;;;;;;30.22;nan;102037.69;5050436;28;20083;-62
2022/07/13 11:16:13;;;;;;;7.13;3.65;;;;;;;30.05;nan;102035.75;5051026;28;20029;-62
2022/07/13 11:18:41;;;;;;;3.50;2.97;;;;;;;29.42;nan;102004.69;5049634;28;20079;-63
2022/07/13 11:21:17;;;;;;;5.90;3.30;;;;;;;29.46;nan;102054.91;5049383;28;20029;-61
2022/07/13 11:26:44;;;;;;;5.55;4.18;;;;;;;29.12;nan;102067.13;5050152;28;20047;-62
2022/07/13 11:29:39;;;;;;;4.95;4.50;;;;;;;29.32;nan;102066.19;5049574;28;20212;-63
2022/07/13 11:32:07;;;;;;;5.60;4.00;;;;;;;28.96;nan;102051.38;5049512;28;20044;-62
2022/07/13 11:34:32;;;;;;;6.85;3.83;;;;;;;28.85;nan;102060.50;5050108;28;20064;-61
2022/07/13 11:37:00;;;;;;;5.05;3.75;;;;;;;28.23;nan;101997.50;5048301;28;20080;-60
2022/07/13 11:39:29;;;;;;;4.40;3.20;;;;;;;28.21;nan;102061.75;5050165;28;20065;-61
2022/07/13 11:41:55;;;;;;;6.18;3.78;;;;;;;28.37;nan;102057.56;5050556;28;20141;-64
2022/07/13 11:44:40;;;;;;;6.50;4.60;;;;;;;27.83;nan;102049.69;5050295;28;20468;-62
2022/07/13 11:47:12;;;;;;;5.60;3.88;;;;;;;28.09;nan;102050.16;5048837;28;20045;-63
2022/07/13 11:49:47;;;;;;;7.70;4.30;;;;;;;28.40;nan;102070.00;5048883;28;20037;-62
2022/07/13 11:52:23;;;;;;;4.80;3.90;;;;;;;28.46;nan;102070.28;5048769;28;20029;-62